sensor_id;sensor_type;location;lat;lon;timestamp;temperature;humidity
25923;DHT22;13725;51.170;4.442;2022-12-10T00:00:33;0.90;99.90
25923;DHT22;13725;51.170;4.442;2022-12-10T00:02:59;0.80;99.90
25923;DHT22;13725;51.170;4.442;2022-12-10T00:05:24;0.80;99.90
25923;DHT22;13725;51.170;4.442;2022-12-10T00:07:50;0.80;99.90
25923;DHT22;13725;51.170;4.442;2022-12-10T00:10:16;0.80;99.90
25923;DHT22;13725;51.170;4.442;2022-12-10T00:12:42;0.80;99.90
25923;DHT22;13725;51.170;4.442;2022-12-10T00:15:08;0.80;99.90
25923;DHT22;13725;51.170;4.442;2022-12-10T00:17:33;0.90;99.90
25923;DHT22;13725;51.170;4.442;2022-12-10T00:19:59;0.90;99.90
25923;DHT22;13725;51.170;4.442;2022-12-10T00:22:25;0.80;99.90
25923;DHT22;13725;51.170;4.442;2022-12-10T00:24:50;0.70;99.90
25923;DHT22;13725;51.170;4.442;2022-12-10T00:27:16;0.70;99.90
25923;DHT22;13725;51.170;4.442;2022-12-10T00:29:42;0.70;99.90
25923;DHT22;13725;51.170;4.442;2022-12-10T00:32:08;0.70;99.90
25923;DHT22;13725;51.170;4.442;2022-12-10T00:34:34;0.70;99.90
25923;DHT22;13725;51.170;4.442;2022-12-10T00:37:01;0.70;99.90
25923;DHT22;13725;51.170;4.442;2022-12-10T00:39:26;0.70;99.90
25923;DHT22;13725;51.170;4.442;2022-12-10T00:41:52;0.70;99.90
25923;DHT22;13725;51.170;4.442;2022-12-10T00:44:18;0.70;99.90
25923;DHT22;13725;51.170;4.442;2022-12-10T00:46:45;0.80;99.90
25923;DHT22;13725;51.170;4.442;2022-12-10T00:49:11;0.80;99.90
25923;DHT22;13725;51.170;4.442;2022-12-10T00:51:37;0.90;99.90
25923;DHT22;13725;51.170;4.442;2022-12-10T00:54:03;0.80;99.90
25923;DHT22;13725;51.170;4.442;2022-12-10T00:56:31;0.80;99.90
25923;DHT22;13725;51.170;4.442;2022-12-10T00:58:58;0.70;99.90
25923;DHT22;13725;51.170;4.442;2022-12-10T01:01:25;0.70;99.90
25923;DHT22;13725;51.170;4.442;2022-12-10T01:03:54;0.70;99.90
25923;DHT22;13725;51.170;4.442;2022-12-10T01:08:47;0.70;99.90
25923;DHT22;13725;51.170;4.442;2022-12-10T01:11:15;0.80;99.90
25923;DHT22;13725;51.170;4.442;2022-12-10T01:13:42;0.90;99.90
25923;DHT22;13725;51.170;4.442;2022-12-10T01:16:10;1.00;99.90
25923;DHT22;13725;51.170;4.442;2022-12-10T01:18:36;1.00;99.90
25923;DHT22;13725;51.170;4.442;2022-12-10T01:21:07;1.10;99.90
25923;DHT22;13725;51.170;4.442;2022-12-10T01:23:36;1.10;99.90
25923;DHT22;13725;51.170;4.442;2022-12-10T01:26:04;0.90;99.90
25923;DHT22;13725;51.170;4.442;2022-12-10T01:28:32;0.90;99.90
25923;DHT22;13725;51.170;4.442;2022-12-10T01:31:02;0.90;99.90
25923;DHT22;13725;51.170;4.442;2022-12-10T01:33:31;1.00;99.90
25923;DHT22;13725;51.170;4.442;2022-12-10T01:36:13;0.90;99.90
25923;DHT22;13725;51.170;4.442;2022-12-10T01:38:40;1.00;99.90
25923;DHT22;13725;51.170;4.442;2022-12-10T01:41:09;1.10;99.90
25923;DHT22;13725;51.170;4.442;2022-12-10T01:46:16;1.00;99.90
25923;DHT22;13725;51.170;4.442;2022-12-10T01:48:42;0.90;99.90
25923;DHT22;13725;51.170;4.442;2022-12-10T01:51:08;0.90;99.90
25923;DHT22;13725;51.170;4.442;2022-12-10T01:53:34;0.90;99.90
25923;DHT22;13725;51.170;4.442;2022-12-10T01:56:00;0.90;99.90
25923;DHT22;13725;51.170;4.442;2022-12-10T01:58:26;0.90;99.90
25923;DHT22;13725;51.170;4.442;2022-12-10T02:09:13;1.00;99.90
25923;DHT22;13725;51.170;4.442;2022-12-10T02:17:14;1.10;99.90
25923;DHT22;13725;51.170;4.442;2022-12-10T02:22:12;1.10;99.90
25923;DHT22;13725;51.170;4.442;2022-12-10T02:24:39;1.10;99.90
25923;DHT22;13725;51.170;4.442;2022-12-10T02:27:27;1.10;99.90
25923;DHT22;13725;51.170;4.442;2022-12-10T02:29:55;1.00;99.90
25923;DHT22;13725;51.170;4.442;2022-12-10T02:32:26;0.90;99.90
25923;DHT22;13725;51.170;4.442;2022-12-10T02:35:04;0.80;99.90
25923;DHT22;13725;51.170;4.442;2022-12-10T02:37:36;0.90;99.90
25923;DHT22;13725;51.170;4.442;2022-12-10T02:40:08;1.00;99.90
25923;DHT22;13725;51.170;4.442;2022-12-10T02:42:42;0.80;99.90
25923;DHT22;13725;51.170;4.442;2022-12-10T02:45:09;0.80;99.90
25923;DHT22;13725;51.170;4.442;2022-12-10T02:47:36;0.80;99.90
25923;DHT22;13725;51.170;4.442;2022-12-10T02:50:05;0.90;99.90
25923;DHT22;13725;51.170;4.442;2022-12-10T02:52:31;1.00;99.90
25923;DHT22;13725;51.170;4.442;2022-12-10T02:54:57;0.90;99.90
25923;DHT22;13725;51.170;4.442;2022-12-10T03:00:09;0.90;99.90
25923;DHT22;13725;51.170;4.442;2022-12-10T03:05:58;0.90;99.90
25923;DHT22;13725;51.170;4.442;2022-12-10T03:08:49;0.90;99.90
25923;DHT22;13725;51.170;4.442;2022-12-10T03:11:17;1.00;99.90
25923;DHT22;13725;51.170;4.442;2022-12-10T03:16:41;1.00;99.90
25923;DHT22;13725;51.170;4.442;2022-12-10T03:19:13;0.90;99.90
25923;DHT22;13725;51.170;4.442;2022-12-10T03:21:41;0.80;99.90
25923;DHT22;13725;51.170;4.442;2022-12-10T03:24:10;0.80;99.90
25923;DHT22;13725;51.170;4.442;2022-12-10T03:26:40;0.80;99.90
25923;DHT22;13725;51.170;4.442;2022-12-10T03:29:09;0.70;99.90
25923;DHT22;13725;51.170;4.442;2022-12-10T03:31:38;0.70;99.90
25923;DHT22;13725;51.170;4.442;2022-12-10T03:34:05;0.80;99.90
25923;DHT22;13725;51.170;4.442;2022-12-10T03:36:31;0.80;99.90
25923;DHT22;13725;51.170;4.442;2022-12-10T03:38:58;0.90;99.90
25923;DHT22;13725;51.170;4.442;2022-12-10T03:41:24;0.90;99.90
25923;DHT22;13725;51.170;4.442;2022-12-10T03:43:56;0.90;99.90
25923;DHT22;13725;51.170;4.442;2022-12-10T03:46:23;0.90;99.90
25923;DHT22;13725;51.170;4.442;2022-12-10T03:48:50;0.80;99.90
25923;DHT22;13725;51.170;4.442;2022-12-10T03:51:17;0.80;99.90
25923;DHT22;13725;51.170;4.442;2022-12-10T03:53:42;0.80;99.90
25923;DHT22;13725;51.170;4.442;2022-12-10T03:56:08;0.80;99.90
25923;DHT22;13725;51.170;4.442;2022-12-10T03:58:34;0.80;99.90
25923;DHT22;13725;51.170;4.442;2022-12-10T04:01:02;0.90;99.90
25923;DHT22;13725;51.170;4.442;2022-12-10T04:03:28;0.90;99.90
25923;DHT22;13725;51.170;4.442;2022-12-10T04:05:54;1.00;99.90
25923;DHT22;13725;51.170;4.442;2022-12-10T04:08:19;0.90;99.90
25923;DHT22;13725;51.170;4.442;2022-12-10T04:10:45;1.00;99.90
25923;DHT22;13725;51.170;4.442;2022-12-10T04:13:11;1.00;99.90
25923;DHT22;13725;51.170;4.442;2022-12-10T04:15:56;1.00;99.90
25923;DHT22;13725;51.170;4.442;2022-12-10T04:18:40;1.00;99.90
25923;DHT22;13725;51.170;4.442;2022-12-10T04:21:06;1.00;99.90
25923;DHT22;13725;51.170;4.442;2022-12-10T04:23:50;0.90;99.90
25923;DHT22;13725;51.170;4.442;2022-12-10T04:26:35;1.00;99.90
25923;DHT22;13725;51.170;4.442;2022-12-10T04:29:25;1.00;99.90
25923;DHT22;13725;51.170;4.442;2022-12-10T04:31:51;0.80;99.90
25923;DHT22;13725;51.170;4.442;2022-12-10T04:34:17;0.70;99.90
25923;DHT22;13725;51.170;4.442;2022-12-10T04:36:43;0.70;99.90
25923;DHT22;13725;51.170;4.442;2022-12-10T04:39:09;0.80;99.90
25923;DHT22;13725;51.170;4.442;2022-12-10T04:41:43;0.90;99.90
25923;DHT22;13725;51.170;4.442;2022-12-10T04:44:08;0.90;99.90
25923;DHT22;13725;51.170;4.442;2022-12-10T04:46:35;0.90;99.90
25923;DHT22;13725;51.170;4.442;2022-12-10T04:49:01;0.90;99.90
25923;DHT22;13725;51.170;4.442;2022-12-10T04:51:27;0.90;99.90
25923;DHT22;13725;51.170;4.442;2022-12-10T04:53:52;0.80;99.90
25923;DHT22;13725;51.170;4.442;2022-12-10T04:56:18;0.80;99.90
25923;DHT22;13725;51.170;4.442;2022-12-10T04:58:44;0.80;99.90
25923;DHT22;13725;51.170;4.442;2022-12-10T05:01:11;0.90;99.90
25923;DHT22;13725;51.170;4.442;2022-12-10T05:03:39;0.90;99.90
25923;DHT22;13725;51.170;4.442;2022-12-10T05:06:08;0.80;99.90
25923;DHT22;13725;51.170;4.442;2022-12-10T05:08:35;0.90;99.90
25923;DHT22;13725;51.170;4.442;2022-12-10T05:11:09;0.80;99.90
25923;DHT22;13725;51.170;4.442;2022-12-10T05:13:36;0.80;99.90
25923;DHT22;13725;51.170;4.442;2022-12-10T05:16:04;0.80;99.90
25923;DHT22;13725;51.170;4.442;2022-12-10T05:18:30;0.80;99.90
25923;DHT22;13725;51.170;4.442;2022-12-10T05:21:03;0.80;99.90
25923;DHT22;13725;51.170;4.442;2022-12-10T05:23:29;0.80;99.90
25923;DHT22;13725;51.170;4.442;2022-12-10T05:26:01;0.80;99.90
25923;DHT22;13725;51.170;4.442;2022-12-10T05:28:29;0.90;99.90
25923;DHT22;13725;51.170;4.442;2022-12-10T05:30:56;0.80;99.90
25923;DHT22;13725;51.170;4.442;2022-12-10T05:33:22;0.80;99.90
25923;DHT22;13725;51.170;4.442;2022-12-10T05:36:07;0.70;99.90
25923;DHT22;13725;51.170;4.442;2022-12-10T05:38:33;0.80;99.90
25923;DHT22;13725;51.170;4.442;2022-12-10T05:41:11;0.70;99.90
25923;DHT22;13725;51.170;4.442;2022-12-10T05:43:37;0.70;99.90
25923;DHT22;13725;51.170;4.442;2022-12-10T05:46:06;0.60;99.90
25923;DHT22;13725;51.170;4.442;2022-12-10T05:48:35;0.60;99.90
25923;DHT22;13725;51.170;4.442;2022-12-10T05:51:09;0.60;99.90
25923;DHT22;13725;51.170;4.442;2022-12-10T05:53:36;0.50;99.90
25923;DHT22;13725;51.170;4.442;2022-12-10T05:56:06;0.60;99.90
25923;DHT22;13725;51.170;4.442;2022-12-10T05:58:33;0.70;99.90
25923;DHT22;13725;51.170;4.442;2022-12-10T06:00:59;0.70;99.90
25923;DHT22;13725;51.170;4.442;2022-12-10T06:03:27;0.80;99.90
25923;DHT22;13725;51.170;4.442;2022-12-10T06:05:53;0.70;99.90
25923;DHT22;13725;51.170;4.442;2022-12-10T06:08:19;0.70;99.90
25923;DHT22;13725;51.170;4.442;2022-12-10T06:10:45;0.70;99.90
25923;DHT22;13725;51.170;4.442;2022-12-10T06:13:11;0.70;99.90
25923;DHT22;13725;51.170;4.442;2022-12-10T06:15:39;0.70;99.90
25923;DHT22;13725;51.170;4.442;2022-12-10T06:18:06;0.70;99.90
25923;DHT22;13725;51.170;4.442;2022-12-10T06:20:31;0.70;99.90
25923;DHT22;13725;51.170;4.442;2022-12-10T06:22:57;0.80;99.90
25923;DHT22;13725;51.170;4.442;2022-12-10T06:25:23;0.60;99.90
25923;DHT22;13725;51.170;4.442;2022-12-10T06:27:49;0.70;99.90
25923;DHT22;13725;51.170;4.442;2022-12-10T06:30:15;0.80;99.90
25923;DHT22;13725;51.170;4.442;2022-12-10T06:32:41;0.80;99.90
25923;DHT22;13725;51.170;4.442;2022-12-10T06:35:09;0.80;99.90
25923;DHT22;13725;51.170;4.442;2022-12-10T06:37:36;0.70;99.90
25923;DHT22;13725;51.170;4.442;2022-12-10T06:40:03;0.60;99.90
25923;DHT22;13725;51.170;4.442;2022-12-10T06:42:29;0.60;99.90
25923;DHT22;13725;51.170;4.442;2022-12-10T06:44:54;0.60;99.90
25923;DHT22;13725;51.170;4.442;2022-12-10T06:47:20;0.70;99.90
25923;DHT22;13725;51.170;4.442;2022-12-10T06:49:46;0.70;99.90
25923;DHT22;13725;51.170;4.442;2022-12-10T06:52:11;0.60;99.90
25923;DHT22;13725;51.170;4.442;2022-12-10T06:54:37;0.50;99.90
25923;DHT22;13725;51.170;4.442;2022-12-10T06:57:03;0.60;99.90
25923;DHT22;13725;51.170;4.442;2022-12-10T06:59:29;0.60;99.90
25923;DHT22;13725;51.170;4.442;2022-12-10T07:01:54;0.60;99.90
25923;DHT22;13725;51.170;4.442;2022-12-10T07:04:20;0.60;99.90
25923;DHT22;13725;51.170;4.442;2022-12-10T07:06:46;0.60;99.90
25923;DHT22;13725;51.170;4.442;2022-12-10T07:09:12;0.70;99.90
25923;DHT22;13725;51.170;4.442;2022-12-10T07:11:37;0.70;99.90
25923;DHT22;13725;51.170;4.442;2022-12-10T07:14:03;0.60;99.90
25923;DHT22;13725;51.170;4.442;2022-12-10T07:16:31;0.70;99.90
25923;DHT22;13725;51.170;4.442;2022-12-10T07:18:59;0.60;99.90
25923;DHT22;13725;51.170;4.442;2022-12-10T07:21:27;0.60;99.90
25923;DHT22;13725;51.170;4.442;2022-12-10T07:23:54;0.60;99.90
25923;DHT22;13725;51.170;4.442;2022-12-10T07:26:24;0.60;99.90
25923;DHT22;13725;51.170;4.442;2022-12-10T07:28:50;0.60;99.90
25923;DHT22;13725;51.170;4.442;2022-12-10T07:31:19;0.70;99.90
25923;DHT22;13725;51.170;4.442;2022-12-10T07:33:45;0.70;99.90
25923;DHT22;13725;51.170;4.442;2022-12-10T07:36:11;0.80;99.90
25923;DHT22;13725;51.170;4.442;2022-12-10T07:38:38;0.80;99.90
25923;DHT22;13725;51.170;4.442;2022-12-10T07:41:05;0.80;99.90
25923;DHT22;13725;51.170;4.442;2022-12-10T07:43:37;0.90;99.90
25923;DHT22;13725;51.170;4.442;2022-12-10T07:46:24;0.80;99.90
25923;DHT22;13725;51.170;4.442;2022-12-10T07:48:51;0.70;99.90
25923;DHT22;13725;51.170;4.442;2022-12-10T07:51:19;0.70;99.90
25923;DHT22;13725;51.170;4.442;2022-12-10T07:53:46;0.80;99.90
25923;DHT22;13725;51.170;4.442;2022-12-10T07:56:12;0.80;99.90
25923;DHT22;13725;51.170;4.442;2022-12-10T07:58:41;0.80;99.90
25923;DHT22;13725;51.170;4.442;2022-12-10T08:01:09;0.90;99.90
25923;DHT22;13725;51.170;4.442;2022-12-10T08:03:36;0.80;99.90
25923;DHT22;13725;51.170;4.442;2022-12-10T08:06:06;0.80;99.90
25923;DHT22;13725;51.170;4.442;2022-12-10T08:08:34;0.80;99.90
25923;DHT22;13725;51.170;4.442;2022-12-10T08:11:01;0.80;99.90
25923;DHT22;13725;51.170;4.442;2022-12-10T08:13:27;0.90;99.90
25923;DHT22;13725;51.170;4.442;2022-12-10T08:15:54;0.80;99.90
25923;DHT22;13725;51.170;4.442;2022-12-10T08:18:20;0.80;99.90
25923;DHT22;13725;51.170;4.442;2022-12-10T08:20:46;0.70;99.90
25923;DHT22;13725;51.170;4.442;2022-12-10T08:23:12;0.70;99.90
25923;DHT22;13725;51.170;4.442;2022-12-10T08:25:37;0.80;99.90
25923;DHT22;13725;51.170;4.442;2022-12-10T08:28:03;0.90;99.90
25923;DHT22;13725;51.170;4.442;2022-12-10T08:30:30;0.90;99.90
25923;DHT22;13725;51.170;4.442;2022-12-10T08:32:55;0.90;99.90
25923;DHT22;13725;51.170;4.442;2022-12-10T08:35:21;0.90;99.90
25923;DHT22;13725;51.170;4.442;2022-12-10T08:37:47;0.80;99.90
25923;DHT22;13725;51.170;4.442;2022-12-10T08:40:13;0.90;99.90
25923;DHT22;13725;51.170;4.442;2022-12-10T08:42:38;0.90;99.90
25923;DHT22;13725;51.170;4.442;2022-12-10T08:45:05;1.00;99.90
25923;DHT22;13725;51.170;4.442;2022-12-10T08:47:31;1.00;99.90
25923;DHT22;13725;51.170;4.442;2022-12-10T08:49:56;1.00;99.90
25923;DHT22;13725;51.170;4.442;2022-12-10T08:52:22;0.90;99.90
25923;DHT22;13725;51.170;4.442;2022-12-10T08:54:48;0.90;99.90
25923;DHT22;13725;51.170;4.442;2022-12-10T08:57:13;0.90;99.90
25923;DHT22;13725;51.170;4.442;2022-12-10T08:59:39;0.90;99.90
25923;DHT22;13725;51.170;4.442;2022-12-10T09:02:05;0.80;99.90
25923;DHT22;13725;51.170;4.442;2022-12-10T09:04:30;0.90;99.90
25923;DHT22;13725;51.170;4.442;2022-12-10T09:06:56;1.10;99.90
25923;DHT22;13725;51.170;4.442;2022-12-10T09:09:22;1.20;99.90
25923;DHT22;13725;51.170;4.442;2022-12-10T09:11:47;1.10;99.90
25923;DHT22;13725;51.170;4.442;2022-12-10T09:14:13;1.10;99.90
25923;DHT22;13725;51.170;4.442;2022-12-10T09:16:39;1.00;99.90
25923;DHT22;13725;51.170;4.442;2022-12-10T09:19:06;1.10;99.90
25923;DHT22;13725;51.170;4.442;2022-12-10T09:21:32;1.10;99.90
25923;DHT22;13725;51.170;4.442;2022-12-10T09:23:58;1.10;99.90
25923;DHT22;13725;51.170;4.442;2022-12-10T09:26:25;1.10;99.90
25923;DHT22;13725;51.170;4.442;2022-12-10T09:28:51;1.10;99.90
25923;DHT22;13725;51.170;4.442;2022-12-10T09:31:19;1.00;99.90
25923;DHT22;13725;51.170;4.442;2022-12-10T09:33:45;1.00;99.90
25923;DHT22;13725;51.170;4.442;2022-12-10T09:36:12;1.10;99.90
25923;DHT22;13725;51.170;4.442;2022-12-10T09:38:41;1.10;99.90
25923;DHT22;13725;51.170;4.442;2022-12-10T09:41:16;1.20;99.90
25923;DHT22;13725;51.170;4.442;2022-12-10T09:44:07;1.30;99.90
25923;DHT22;13725;51.170;4.442;2022-12-10T09:46:53;1.40;99.90
25923;DHT22;13725;51.170;4.442;2022-12-10T09:51:46;1.20;99.90
25923;DHT22;13725;51.170;4.442;2022-12-10T09:54:18;1.10;99.90
25923;DHT22;13725;51.170;4.442;2022-12-10T09:56:44;1.20;99.90
25923;DHT22;13725;51.170;4.442;2022-12-10T09:59:40;1.30;99.90
25923;DHT22;13725;51.170;4.442;2022-12-10T10:02:25;1.40;99.90
25923;DHT22;13725;51.170;4.442;2022-12-10T10:05:10;1.40;99.90
25923;DHT22;13725;51.170;4.442;2022-12-10T10:07:46;1.60;99.90
25923;DHT22;13725;51.170;4.442;2022-12-10T10:10:32;1.60;99.90
25923;DHT22;13725;51.170;4.442;2022-12-10T10:15:43;1.80;99.90
25923;DHT22;13725;51.170;4.442;2022-12-10T10:20:40;2.00;99.90
25923;DHT22;13725;51.170;4.442;2022-12-10T10:23:07;2.00;99.90
25923;DHT22;13725;51.170;4.442;2022-12-10T10:25:34;1.90;99.90
25923;DHT22;13725;51.170;4.442;2022-12-10T10:28:00;1.80;99.90
25923;DHT22;13725;51.170;4.442;2022-12-10T10:30:25;1.90;99.90
25923;DHT22;13725;51.170;4.442;2022-12-10T10:32:56;2.00;99.90
25923;DHT22;13725;51.170;4.442;2022-12-10T10:35:34;2.00;99.90
25923;DHT22;13725;51.170;4.442;2022-12-10T10:38:13;2.10;99.90
25923;DHT22;13725;51.170;4.442;2022-12-10T10:40:44;2.10;99.90
25923;DHT22;13725;51.170;4.442;2022-12-10T10:46:06;1.90;99.90
25923;DHT22;13725;51.170;4.442;2022-12-10T10:48:35;1.90;99.90
25923;DHT22;13725;51.170;4.442;2022-12-10T10:51:12;2.00;99.90
25923;DHT22;13725;51.170;4.442;2022-12-10T10:53:56;1.90;99.90
25923;DHT22;13725;51.170;4.442;2022-12-10T10:56:27;1.90;99.90
25923;DHT22;13725;51.170;4.442;2022-12-10T11:01:25;1.80;99.90
25923;DHT22;13725;51.170;4.442;2022-12-10T11:03:59;1.80;99.90
25923;DHT22;13725;51.170;4.442;2022-12-10T11:06:25;1.80;99.90
25923;DHT22;13725;51.170;4.442;2022-12-10T11:08:54;1.80;99.90
25923;DHT22;13725;51.170;4.442;2022-12-10T11:11:37;1.80;99.90
25923;DHT22;13725;51.170;4.442;2022-12-10T11:14:26;1.90;99.90
25923;DHT22;13725;51.170;4.442;2022-12-10T11:19:52;2.30;99.90
25923;DHT22;13725;51.170;4.442;2022-12-10T11:22:24;2.10;99.90
25923;DHT22;13725;51.170;4.442;2022-12-10T11:24:50;2.20;99.90
25923;DHT22;13725;51.170;4.442;2022-12-10T11:27:41;2.20;99.90
25923;DHT22;13725;51.170;4.442;2022-12-10T11:30:15;2.30;99.90
25923;DHT22;13725;51.170;4.442;2022-12-10T11:38:29;2.40;99.90
25923;DHT22;13725;51.170;4.442;2022-12-10T11:41:18;2.40;99.90
25923;DHT22;13725;51.170;4.442;2022-12-10T12:07:12;2.60;99.90
25923;DHT22;13725;51.170;4.442;2022-12-10T12:12:19;2.60;99.90
25923;DHT22;13725;51.170;4.442;2022-12-10T12:14:54;2.50;99.90
25923;DHT22;13725;51.170;4.442;2022-12-10T12:17:25;2.60;99.90
25923;DHT22;13725;51.170;4.442;2022-12-10T12:20:26;2.60;99.90
25923;DHT22;13725;51.170;4.442;2022-12-10T12:22:53;2.60;99.90
25923;DHT22;13725;51.170;4.442;2022-12-10T12:25:44;2.60;99.90
25923;DHT22;13725;51.170;4.442;2022-12-10T12:31:31;2.70;99.90
25923;DHT22;13725;51.170;4.442;2022-12-10T12:36:44;2.80;99.90
25923;DHT22;13725;51.170;4.442;2022-12-10T12:39:58;2.70;99.90
25923;DHT22;13725;51.170;4.442;2022-12-10T12:45:29;2.60;99.90
25923;DHT22;13725;51.170;4.442;2022-12-10T12:53:17;2.60;99.90
25923;DHT22;13725;51.170;4.442;2022-12-10T12:58:19;2.80;99.90
25923;DHT22;13725;51.170;4.442;2022-12-10T13:00:49;2.70;99.90
25923;DHT22;13725;51.170;4.442;2022-12-10T13:03:32;2.60;99.90
25923;DHT22;13725;51.170;4.442;2022-12-10T13:06:21;2.70;99.90
25923;DHT22;13725;51.170;4.442;2022-12-10T13:08:52;2.60;99.90
25923;DHT22;13725;51.170;4.442;2022-12-10T13:11:40;2.70;99.90
25923;DHT22;13725;51.170;4.442;2022-12-10T13:24:19;2.90;99.90
25923;DHT22;13725;51.170;4.442;2022-12-10T13:27:04;3.00;99.90
25923;DHT22;13725;51.170;4.442;2022-12-10T13:29:57;3.00;99.90
25923;DHT22;13725;51.170;4.442;2022-12-10T13:43:37;3.10;99.90
25923;DHT22;13725;51.170;4.442;2022-12-10T13:46:40;3.20;99.90
25923;DHT22;13725;51.170;4.442;2022-12-10T13:49:18;3.30;99.90
25923;DHT22;13725;51.170;4.442;2022-12-10T13:55:05;3.20;99.90
25923;DHT22;13725;51.170;4.442;2022-12-10T13:57:56;3.10;99.90
25923;DHT22;13725;51.170;4.442;2022-12-10T14:00:49;3.00;99.90
25923;DHT22;13725;51.170;4.442;2022-12-10T14:06:09;3.10;99.90
25923;DHT22;13725;51.170;4.442;2022-12-10T14:08:38;3.10;99.90
25923;DHT22;13725;51.170;4.442;2022-12-10T14:11:14;3.10;99.90
25923;DHT22;13725;51.170;4.442;2022-12-10T14:13:47;3.00;99.90
25923;DHT22;13725;51.170;4.442;2022-12-10T14:16:19;2.90;99.90
25923;DHT22;13725;51.170;4.442;2022-12-10T14:18:58;2.80;99.90
25923;DHT22;13725;51.170;4.442;2022-12-10T14:21:25;2.80;99.90
25923;DHT22;13725;51.170;4.442;2022-12-10T14:23:53;2.80;99.90
25923;DHT22;13725;51.170;4.442;2022-12-10T14:26:36;2.70;99.90
25923;DHT22;13725;51.170;4.442;2022-12-10T14:31:35;2.70;99.90
25923;DHT22;13725;51.170;4.442;2022-12-10T14:34:07;2.70;99.90
25923;DHT22;13725;51.170;4.442;2022-12-10T14:36:37;2.80;99.90
25923;DHT22;13725;51.170;4.442;2022-12-10T14:39:14;3.00;99.90
25923;DHT22;13725;51.170;4.442;2022-12-10T14:41:40;2.90;99.90
25923;DHT22;13725;51.170;4.442;2022-12-10T14:44:06;2.80;99.90
25923;DHT22;13725;51.170;4.442;2022-12-10T14:46:34;2.80;99.90
25923;DHT22;13725;51.170;4.442;2022-12-10T14:48:59;2.80;99.90
25923;DHT22;13725;51.170;4.442;2022-12-10T14:51:30;2.70;99.90
25923;DHT22;13725;51.170;4.442;2022-12-10T14:53:57;2.70;99.90
25923;DHT22;13725;51.170;4.442;2022-12-10T14:56:30;2.70;99.90
25923;DHT22;13725;51.170;4.442;2022-12-10T15:01:29;2.80;99.90
25923;DHT22;13725;51.170;4.442;2022-12-10T15:03:58;2.80;99.90
25923;DHT22;13725;51.170;4.442;2022-12-10T15:06:25;2.80;99.90
25923;DHT22;13725;51.170;4.442;2022-12-10T15:08:54;2.80;99.90
25923;DHT22;13725;51.170;4.442;2022-12-10T15:11:21;2.80;99.90
25923;DHT22;13725;51.170;4.442;2022-12-10T15:13:53;2.80;99.90
25923;DHT22;13725;51.170;4.442;2022-12-10T15:18:53;2.80;99.90
25923;DHT22;13725;51.170;4.442;2022-12-10T15:21:22;2.80;99.90
25923;DHT22;13725;51.170;4.442;2022-12-10T15:23:49;2.70;99.90
25923;DHT22;13725;51.170;4.442;2022-12-10T15:26:28;2.50;99.90
25923;DHT22;13725;51.170;4.442;2022-12-10T15:31:54;2.50;99.90
25923;DHT22;13725;51.170;4.442;2022-12-10T15:34:20;2.50;99.90
25923;DHT22;13725;51.170;4.442;2022-12-10T15:36:51;2.50;99.90
25923;DHT22;13725;51.170;4.442;2022-12-10T15:39:27;2.50;99.90
25923;DHT22;13725;51.170;4.442;2022-12-10T15:41:59;2.50;99.90
25923;DHT22;13725;51.170;4.442;2022-12-10T15:44:37;2.60;99.90
25923;DHT22;13725;51.170;4.442;2022-12-10T15:47:18;2.60;99.90
25923;DHT22;13725;51.170;4.442;2022-12-10T15:49:46;2.60;99.90
25923;DHT22;13725;51.170;4.442;2022-12-10T15:52:18;2.50;99.90
25923;DHT22;13725;51.170;4.442;2022-12-10T15:54:46;2.60;99.90
25923;DHT22;13725;51.170;4.442;2022-12-10T15:57:20;2.60;99.90
25923;DHT22;13725;51.170;4.442;2022-12-10T15:59:51;2.60;99.90
25923;DHT22;13725;51.170;4.442;2022-12-10T16:04:58;2.60;99.90
25923;DHT22;13725;51.170;4.442;2022-12-10T16:07:23;2.60;99.90
25923;DHT22;13725;51.170;4.442;2022-12-10T16:09:49;2.60;99.90
25923;DHT22;13725;51.170;4.442;2022-12-10T16:12:16;2.60;99.90
25923;DHT22;13725;51.170;4.442;2022-12-10T16:14:54;2.60;99.90
25923;DHT22;13725;51.170;4.442;2022-12-10T16:17:26;2.70;99.90
25923;DHT22;13725;51.170;4.442;2022-12-10T16:19:56;2.70;99.90
25923;DHT22;13725;51.170;4.442;2022-12-10T16:22:21;2.70;99.90
25923;DHT22;13725;51.170;4.442;2022-12-10T16:24:47;2.70;99.90
25923;DHT22;13725;51.170;4.442;2022-12-10T16:27:14;2.70;99.90
25923;DHT22;13725;51.170;4.442;2022-12-10T16:29:43;2.60;99.90
25923;DHT22;13725;51.170;4.442;2022-12-10T16:32:12;2.80;99.90
25923;DHT22;13725;51.170;4.442;2022-12-10T16:34:38;2.80;99.90
25923;DHT22;13725;51.170;4.442;2022-12-10T16:37:05;2.80;99.90
25923;DHT22;13725;51.170;4.442;2022-12-10T16:39:31;2.80;99.90
25923;DHT22;13725;51.170;4.442;2022-12-10T16:41:57;2.80;99.90
25923;DHT22;13725;51.170;4.442;2022-12-10T16:44:23;2.80;99.90
25923;DHT22;13725;51.170;4.442;2022-12-10T16:46:49;2.90;99.90
25923;DHT22;13725;51.170;4.442;2022-12-10T16:49:15;2.90;99.90
25923;DHT22;13725;51.170;4.442;2022-12-10T16:51:42;2.90;99.90
25923;DHT22;13725;51.170;4.442;2022-12-10T16:54:09;2.90;99.90
25923;DHT22;13725;51.170;4.442;2022-12-10T16:56:36;2.80;99.90
25923;DHT22;13725;51.170;4.442;2022-12-10T16:59:02;2.90;99.90
25923;DHT22;13725;51.170;4.442;2022-12-10T17:01:29;2.90;99.90
25923;DHT22;13725;51.170;4.442;2022-12-10T17:03:57;2.80;99.90
25923;DHT22;13725;51.170;4.442;2022-12-10T17:06:24;2.80;99.90
25923;DHT22;13725;51.170;4.442;2022-12-10T17:08:50;2.70;99.90
25923;DHT22;13725;51.170;4.442;2022-12-10T17:11:20;2.70;99.90
25923;DHT22;13725;51.170;4.442;2022-12-10T17:14:31;2.80;99.90
25923;DHT22;13725;51.170;4.442;2022-12-10T17:16:57;2.70;99.90
25923;DHT22;13725;51.170;4.442;2022-12-10T17:19:29;2.80;99.90
25923;DHT22;13725;51.170;4.442;2022-12-10T17:21:55;2.70;99.90
25923;DHT22;13725;51.170;4.442;2022-12-10T17:24:21;2.70;99.90
25923;DHT22;13725;51.170;4.442;2022-12-10T17:26:47;2.80;99.90
25923;DHT22;13725;51.170;4.442;2022-12-10T17:29:33;2.80;99.90
25923;DHT22;13725;51.170;4.442;2022-12-10T17:32:02;2.80;99.90
25923;DHT22;13725;51.170;4.442;2022-12-10T17:34:28;2.70;99.90
25923;DHT22;13725;51.170;4.442;2022-12-10T17:36:54;2.80;99.90
25923;DHT22;13725;51.170;4.442;2022-12-10T17:39:21;2.70;99.90
25923;DHT22;13725;51.170;4.442;2022-12-10T17:41:51;2.70;99.90
25923;DHT22;13725;51.170;4.442;2022-12-10T17:44:17;2.60;99.90
25923;DHT22;13725;51.170;4.442;2022-12-10T17:46:43;2.60;99.90
25923;DHT22;13725;51.170;4.442;2022-12-10T17:49:15;2.70;99.90
25923;DHT22;13725;51.170;4.442;2022-12-10T17:51:42;2.70;99.90
25923;DHT22;13725;51.170;4.442;2022-12-10T17:54:08;2.70;99.90
25923;DHT22;13725;51.170;4.442;2022-12-10T17:56:34;2.70;99.90
25923;DHT22;13725;51.170;4.442;2022-12-10T17:59:00;2.70;99.90
25923;DHT22;13725;51.170;4.442;2022-12-10T18:01:26;2.70;99.90
25923;DHT22;13725;51.170;4.442;2022-12-10T18:03:52;2.70;99.90
25923;DHT22;13725;51.170;4.442;2022-12-10T18:08:46;2.70;99.90
25923;DHT22;13725;51.170;4.442;2022-12-10T18:11:16;2.80;99.90
25923;DHT22;13725;51.170;4.442;2022-12-10T18:13:43;2.80;99.90
25923;DHT22;13725;51.170;4.442;2022-12-10T18:16:14;2.70;99.90
25923;DHT22;13725;51.170;4.442;2022-12-10T18:18:39;2.80;99.90